createdAt,value
2022-10-21T00:01:51.304Z,83.20
2022-10-21T00:04:18.148Z,82.97
2022-10-21T00:06:46.834Z,82.86
2022-10-21T00:09:13.610Z,82.58
2022-10-21T00:11:40.255Z,82.65
2022-10-21T00:14:07.021Z,82.27
2022-10-21T00:16:33.756Z,81.92
2022-10-21T00:19:00.471Z,82.04
2022-10-21T00:21:27.221Z,82.14
2022-10-21T00:23:53.943Z,81.94
2022-10-21T00:26:21.080Z,82.06
2022-10-21T00:28:47.800Z,81.91
2022-10-21T00:31:15.359Z,81.95
2022-10-21T00:33:42.267Z,82.15
2022-10-21T00:36:14.576Z,82.23
2022-10-21T00:38:42.385Z,82.19
2022-10-21T00:41:09.096Z,82.03
2022-10-21T00:44:02.044Z,82.01
2022-10-21T00:46:38.358Z,82.02
2022-10-21T00:49:21.580Z,82.14
2022-10-21T00:51:50.098Z,81.93
2022-10-21T00:54:16.827Z,81.94
2022-10-21T00:56:44.548Z,81.83
2022-10-21T00:59:11.449Z,81.91
2022-10-21T01:01:38.232Z,82.09
2022-10-21T01:04:05.937Z,82.14
2022-10-21T01:06:32.661Z,82.21
2022-10-21T01:08:59.392Z,82.12
2022-10-21T01:11:26.154Z,82.10
2022-10-21T01:14:12.208Z,81.92
2022-10-21T01:17:20.360Z,82.05
2022-10-21T01:20:15.803Z,81.88
2022-10-21T01:23:10.601Z,81.78
2022-10-21T01:25:59.191Z,81.61
2022-10-21T01:28:44.335Z,81.63
2022-10-21T01:31:36.898Z,81.71
2022-10-21T01:34:03.588Z,81.99
2022-10-21T01:36:55.384Z,82.06
2022-10-21T01:39:41.971Z,82.36
2022-10-21T01:42:20.596Z,82.63
2022-10-21T01:45:07.723Z,82.71
2022-10-21T01:47:36.773Z,82.73
2022-10-21T01:50:08.662Z,82.80
2022-10-21T01:52:35.534Z,82.57
2022-10-21T01:55:07.151Z,82.35
2022-10-21T01:57:37.155Z,82.11
2022-10-21T02:00:04.704Z,82.04
2022-10-21T02:02:32.986Z,82.05
2022-10-21T02:05:01.649Z,82.14
2022-10-21T02:07:28.427Z,81.87
2022-10-21T02:09:55.136Z,81.83
2022-10-21T02:12:22.489Z,81.78
2022-10-21T02:14:50.156Z,81.70
2022-10-21T02:17:18.923Z,81.53
2022-10-21T02:19:46.534Z,81.48
2022-10-21T02:22:14.838Z,81.66
2022-10-21T02:24:51.371Z,81.48
2022-10-21T02:27:18.675Z,81.47
2022-10-21T02:29:45.748Z,81.43
2022-10-21T02:32:30.728Z,81.42
2022-10-21T02:35:21.741Z,81.25
2022-10-21T02:37:54.173Z,81.26
2022-10-21T02:40:24.549Z,81.17
2022-10-21T02:42:54.092Z,81.10
2022-10-21T02:45:21.240Z,81.20
2022-10-21T02:47:48.302Z,81.24
2022-10-21T02:50:15.289Z,81.37
2022-10-21T02:52:42.002Z,81.53
2022-10-21T02:55:09.017Z,81.74
2022-10-21T02:57:35.855Z,81.84
2022-10-21T03:00:02.924Z,81.89
2022-10-21T03:02:29.548Z,81.95
2022-10-21T03:04:56.253Z,81.90
2022-10-21T03:07:22.930Z,81.89
2022-10-21T03:09:49.641Z,81.65
2022-10-21T03:12:16.343Z,81.87
2022-10-21T03:14:43.049Z,81.98
2022-10-21T03:17:09.734Z,82.00
2022-10-21T03:19:36.426Z,82.09
2022-10-21T03:22:03.139Z,82.05
2022-10-21T03:24:29.885Z,82.12
2022-10-21T03:26:56.605Z,82.09
2022-10-21T03:29:23.323Z,81.73
2022-10-21T03:31:50.036Z,81.69
2022-10-21T03:34:16.857Z,81.61
2022-10-21T03:36:43.533Z,81.59
2022-10-21T03:39:11.116Z,81.48
2022-10-21T03:41:37.985Z,81.77
2022-10-21T03:44:04.722Z,81.91
2022-10-21T03:46:31.425Z,82.00
2022-10-21T03:49:02.830Z,81.80
2022-10-21T03:51:31.329Z,81.90
2022-10-21T03:53:58.151Z,82.15
2022-10-21T03:56:24.844Z,82.09
2022-10-21T03:58:54.002Z,81.93
2022-10-21T04:01:24.647Z,82.19
2022-10-21T04:03:51.435Z,82.31
2022-10-21T04:06:18.142Z,82.37
2022-10-21T04:08:44.912Z,82.37
2022-10-21T04:11:11.812Z,82.35
2022-10-21T04:13:38.599Z,82.10
2022-10-21T04:16:07.198Z,82.20
2022-10-21T04:18:34.478Z,82.10
2022-10-21T04:21:01.212Z,82.16
2022-10-21T04:23:27.940Z,82.04
2022-10-21T04:25:54.626Z,82.04
2022-10-21T04:28:21.368Z,81.94
2022-10-21T04:30:49.791Z,81.85
2022-10-21T04:33:16.520Z,82.08
2022-10-21T04:35:43.265Z,81.84
2022-10-21T04:38:10.033Z,81.87
2022-10-21T04:40:36.785Z,81.75
2022-10-21T04:43:03.681Z,81.82
2022-10-21T04:45:30.305Z,81.70
2022-10-21T04:47:57.098Z,81.67
2022-10-21T04:50:23.738Z,81.61
2022-10-21T04:52:51.668Z,81.51
2022-10-21T04:55:18.367Z,81.67
2022-10-21T04:57:45.185Z,81.67
2022-10-21T05:00:12.617Z,81.74
2022-10-21T05:02:39.626Z,81.61
2022-10-21T05:05:06.916Z,81.93
2022-10-21T05:07:33.663Z,81.80
2022-10-21T05:10:00.399Z,82.10
2022-10-21T05:12:27.161Z,82.23
2022-10-21T05:14:53.883Z,82.24
2022-10-21T05:17:20.599Z,82.36
2022-10-21T05:19:47.317Z,82.67
2022-10-21T05:22:14.060Z,82.69
2022-10-21T05:24:40.762Z,83.05
2022-10-21T05:27:07.505Z,83.07
2022-10-21T05:29:34.203Z,83.34
2022-10-21T05:32:00.965Z,83.33
2022-10-21T05:34:27.673Z,83.70
2022-10-21T05:36:54.396Z,83.75
2022-10-21T05:39:21.117Z,83.86
2022-10-21T05:41:48.241Z,83.87
2022-10-21T05:44:15.229Z,84.02
2022-10-21T05:46:41.888Z,83.95
2022-10-21T05:49:08.703Z,84.21
2022-10-21T05:51:35.400Z,84.27
2022-10-21T05:54:03.950Z,84.09
2022-10-21T05:56:30.860Z,84.49
2022-10-21T05:58:57.507Z,84.49
2022-10-21T06:01:24.291Z,84.46
2022-10-21T06:03:50.981Z,84.63
2022-10-21T06:06:17.689Z,84.66
2022-10-21T06:08:44.561Z,84.71
2022-10-21T06:11:12.156Z,84.82
2022-10-21T06:13:38.934Z,84.89
2022-10-21T06:18:37.751Z,85.11
2022-10-21T06:21:04.750Z,85.18
2022-10-21T06:23:31.901Z,85.28
2022-10-21T06:26:00.162Z,85.29
2022-10-21T06:28:27.455Z,85.45
2022-10-21T06:30:54.178Z,85.54
2022-10-21T06:33:26.059Z,85.70
2022-10-21T06:35:54.692Z,85.61
2022-10-21T06:38:21.408Z,85.50
2022-10-21T06:40:48.879Z,85.54
2022-10-21T06:43:16.672Z,85.61
2022-10-21T06:45:43.538Z,85.44
2022-10-21T06:48:10.401Z,85.68
2022-10-21T06:50:37.471Z,85.71
2022-10-21T06:53:04.353Z,85.71
2022-10-21T06:55:30.958Z,85.81
2022-10-21T06:57:59.208Z,85.62
2022-10-21T07:00:26.115Z,85.51
2022-10-21T07:02:53.009Z,85.28
2022-10-21T07:05:19.780Z,85.31
2022-10-21T07:07:46.508Z,85.39
2022-10-21T07:10:13.302Z,85.21
2022-10-21T07:12:39.957Z,85.19
2022-10-21T07:15:07.091Z,84.70
2022-10-21T07:17:33.796Z,84.75
2022-10-21T07:20:00.631Z,84.56
2022-10-21T07:22:27.300Z,84.17
2022-10-21T07:24:54.059Z,83.71
2022-10-21T07:27:20.726Z,83.86
2022-10-21T07:29:47.485Z,83.78
2022-10-21T07:32:14.276Z,83.55
2022-10-21T07:34:40.936Z,83.56
2022-10-21T07:37:07.672Z,83.20
2022-10-21T07:39:35.199Z,82.83
2022-10-21T07:42:02.280Z,82.76
2022-10-21T07:44:29.281Z,82.49
2022-10-21T07:46:56.270Z,81.85
2022-10-21T07:49:23.738Z,81.57
2022-10-21T07:51:50.594Z,81.06
2022-10-21T07:54:17.607Z,80.94
2022-10-21T07:56:46.532Z,80.62
2022-10-21T07:59:13.845Z,80.10
2022-10-21T08:01:44.728Z,79.81
2022-10-21T08:04:13.953Z,79.59
2022-10-21T08:06:41.122Z,79.34
2022-10-21T08:09:08.006Z,79.10
2022-10-21T08:11:34.946Z,79.57
2022-10-21T08:14:03.158Z,79.02
2022-10-21T08:16:29.875Z,79.01
2022-10-21T08:18:56.795Z,78.81
2022-10-21T08:21:23.547Z,78.71
2022-10-21T08:23:50.300Z,78.48
2022-10-21T08:26:17.151Z,78.47
2022-10-21T08:28:43.871Z,78.54
2022-10-21T08:31:12.416Z,78.37
2022-10-21T08:33:39.351Z,78.40
2022-10-21T08:36:13.687Z,78.29
2022-10-21T08:38:40.414Z,77.92
2022-10-21T08:41:29.589Z,77.34
2022-10-21T08:44:10.972Z,77.75
2022-10-21T08:46:46.674Z,77.54
2022-10-21T08:49:23.218Z,77.96
2022-10-21T08:51:55.493Z,77.57
2022-10-21T08:54:44.411Z,77.52
2022-10-21T08:57:11.528Z,77.26
2022-10-21T08:59:42.014Z,77.42
2022-10-21T09:02:27.563Z,77.17
2022-10-21T09:05:19.337Z,76.30
2022-10-21T09:07:55.150Z,76.10
2022-10-21T09:10:27.996Z,76.11
2022-10-21T09:16:54.612Z,76.20
2022-10-21T09:19:23.928Z,75.99
2022-10-21T09:22:22.510Z,75.80
2022-10-21T09:24:59.036Z,75.91
2022-10-21T09:27:31.959Z,75.88
2022-10-21T09:30:06.800Z,75.28
2022-10-21T09:32:36.191Z,74.91
2022-10-21T09:35:05.826Z,74.69
2022-10-21T09:37:42.207Z,74.39
2022-10-21T09:40:20.431Z,74.10
2022-10-21T09:42:49.806Z,74.45
2022-10-21T09:45:21.873Z,74.45
2022-10-21T09:47:54.951Z,74.47
2022-10-21T09:50:21.732Z,74.41
2022-10-21T09:52:49.488Z,73.88
2022-10-21T09:55:16.365Z,73.81
2022-10-21T09:57:48.233Z,73.91
2022-10-21T10:00:15.041Z,74.13
2022-10-21T10:02:43.728Z,74.17
2022-10-21T10:05:36.931Z,73.48
2022-10-21T10:08:28.757Z,73.26
2022-10-21T10:11:22.053Z,73.24
2022-10-21T10:13:50.352Z,73.36
2022-10-21T10:16:26.253Z,72.85
2022-10-21T10:19:09.778Z,72.23
2022-10-21T10:21:36.494Z,71.82
2022-10-21T10:24:03.379Z,71.88
2022-10-21T10:26:30.811Z,71.81
2022-10-21T10:29:20.815Z,71.24
2022-10-21T10:31:50.787Z,70.92
2022-10-21T10:34:27.730Z,70.72
2022-10-21T10:37:03.568Z,70.19
2022-10-21T10:39:31.477Z,70.01
2022-10-21T10:41:58.214Z,69.67
2022-10-21T10:44:37.007Z,69.86
2022-10-21T10:47:04.504Z,69.83
2022-10-21T10:49:37.220Z,69.67
2022-10-21T10:52:10.002Z,69.90
2022-10-21T10:54:37.705Z,69.70
2022-10-21T10:57:18.682Z,69.65
2022-10-21T10:59:48.897Z,69.84
2022-10-21T11:02:26.372Z,69.75
2022-10-21T11:05:27.442Z,68.87
2022-10-21T11:07:56.060Z,68.27
2022-10-21T11:10:33.429Z,68.59
2022-10-21T11:13:00.691Z,68.49
2022-10-21T11:15:52.131Z,68.13
2022-10-21T11:18:34.925Z,68.18
2022-10-21T11:21:26.061Z,67.44
2022-10-21T11:24:11.239Z,67.38
2022-10-21T11:27:00.687Z,67.85
2022-10-21T11:29:39.900Z,67.71
2022-10-21T11:32:36.315Z,67.56
2022-10-21T11:35:03.365Z,66.73
2022-10-21T11:37:49.218Z,65.24
2022-10-21T11:40:20.342Z,64.56
2022-10-21T11:42:48.586Z,63.97
2022-10-21T11:45:30.208Z,63.23
2022-10-21T11:48:19.364Z,62.85
2022-10-21T11:50:49.642Z,62.44
2022-10-21T11:53:28.391Z,62.39
2022-10-21T11:56:06.981Z,61.88
2022-10-21T11:58:53.589Z,61.06
2022-10-21T12:01:26.942Z,60.58
2022-10-21T12:04:04.768Z,60.36
2022-10-21T12:06:35.602Z,60.25
2022-10-21T12:09:04.961Z,60.06
2022-10-21T12:11:46.624Z,59.97
2022-10-21T12:14:28.843Z,59.49
2022-10-21T12:16:58.788Z,59.51
2022-10-21T12:19:25.531Z,59.52
2022-10-21T12:21:52.266Z,59.60
2022-10-21T12:24:31.161Z,59.58
2022-10-21T12:27:41.828Z,59.61
2022-10-21T12:30:16.981Z,59.93
2022-10-21T12:32:49.497Z,60.20
2022-10-21T12:35:21.432Z,60.14
2022-10-21T12:37:50.791Z,60.13
2022-10-21T12:40:35.231Z,60.30
2022-10-21T12:43:06.001Z,60.40
2022-10-21T12:45:37.324Z,60.49
2022-10-21T12:48:07.454Z,60.57
2022-10-21T12:50:34.187Z,60.50
2022-10-21T12:53:05.914Z,60.32
2022-10-21T12:55:39.629Z,60.08
2022-10-21T12:58:13.552Z,60.24
2022-10-21T13:00:43.361Z,60.16
2022-10-21T13:03:14.406Z,59.97
2022-10-21T13:05:41.096Z,60.33
2022-10-21T13:08:20.124Z,60.89
2022-10-21T13:11:05.287Z,60.92
2022-10-21T13:13:38.888Z,60.78
2022-10-21T13:16:20.962Z,60.85
2022-10-21T13:18:50.948Z,61.36
2022-10-21T13:21:29.849Z,61.61
2022-10-21T13:24:13.500Z,61.13
2022-10-21T13:26:57.353Z,60.44
2022-10-21T13:29:34.565Z,60.13
2022-10-21T13:32:19.521Z,60.05
2022-10-21T13:35:05.493Z,59.70
2022-10-21T13:37:39.384Z,59.56
2022-10-21T13:40:14.607Z,59.55
2022-10-21T13:42:43.614Z,59.41
2022-10-21T13:45:25.475Z,59.82
2022-10-21T13:48:12.856Z,60.00
2022-10-21T13:50:41.183Z,60.14
2022-10-21T13:53:28.587Z,60.32
2022-10-21T13:56:06.167Z,60.25
2022-10-21T13:58:39.392Z,60.53
2022-10-21T14:01:15.138Z,60.74
2022-10-21T14:03:42.397Z,61.08
2022-10-21T14:06:09.678Z,61.20
2022-10-21T14:08:43.817Z,61.19
2022-10-21T14:11:34.819Z,61.22
2022-10-21T14:14:07.003Z,61.20
2022-10-21T14:16:35.465Z,61.43
2022-10-21T14:19:05.460Z,61.62
2022-10-21T14:21:34.503Z,61.32
2022-10-21T14:24:01.216Z,61.64
2022-10-21T14:26:31.088Z,61.81
2022-10-21T14:28:59.719Z,61.92
2022-10-21T14:31:26.507Z,62.01
2022-10-21T14:33:53.172Z,62.24
2022-10-21T14:36:23.266Z,62.87
2022-10-21T14:38:58.811Z,63.16
2022-10-21T14:41:34.850Z,63.01
2022-10-21T14:44:12.978Z,63.17
2022-10-21T14:46:41.533Z,63.87
2022-10-21T14:49:19.125Z,64.34
2022-10-21T14:51:46.028Z,65.10
2022-10-21T14:54:57.630Z,65.41
2022-10-21T14:57:30.480Z,65.85
2022-10-21T14:59:57.170Z,66.33
2022-10-21T15:02:28.773Z,66.76
2022-10-21T15:04:57.254Z,67.31
2022-10-21T15:07:36.921Z,67.71
2022-10-21T15:10:03.745Z,68.14
2022-10-21T15:12:50.491Z,68.43
2022-10-21T15:15:51.061Z,68.74
2022-10-21T15:18:23.382Z,69.33
2022-10-21T15:20:55.101Z,69.89
2022-10-21T15:23:28.501Z,69.81
2022-10-21T15:26:05.703Z,70.02
2022-10-21T15:28:33.584Z,70.63
2022-10-21T15:31:00.653Z,70.65
2022-10-21T15:33:27.455Z,70.97
2022-10-21T15:36:02.734Z,71.16
2022-10-21T15:38:29.581Z,71.67
2022-10-21T15:40:56.450Z,71.83
2022-10-21T15:43:23.317Z,71.91
2022-10-21T15:45:50.101Z,72.06
2022-10-21T15:48:16.970Z,72.22
2022-10-21T15:50:44.529Z,72.71
2022-10-21T15:53:11.692Z,73.09
2022-10-21T15:55:39.032Z,73.27
2022-10-21T15:58:06.518Z,73.55
2022-10-21T16:00:38.636Z,73.82
2022-10-21T16:03:07.889Z,74.12
2022-10-21T16:05:34.754Z,74.40
2022-10-21T16:08:01.549Z,74.62
2022-10-21T16:10:34.453Z,74.82
2022-10-21T16:13:01.357Z,74.96
2022-10-21T16:15:28.134Z,75.14
2022-10-21T16:17:56.795Z,75.21
2022-10-21T16:20:25.516Z,75.27
2022-10-21T16:22:52.372Z,75.46
2022-10-21T16:25:19.241Z,75.49
2022-10-21T16:27:55.629Z,75.61
2022-10-21T16:30:28.294Z,75.86
2022-10-21T16:32:55.378Z,75.55
2022-10-21T16:35:22.257Z,75.29
2022-10-21T16:37:49.144Z,75.69
2022-10-21T16:40:23.424Z,75.94
2022-10-21T16:42:50.599Z,76.24
2022-10-21T16:45:18.354Z,76.53
2022-10-21T16:47:48.600Z,76.37
2022-10-21T16:50:40.878Z,76.34
2022-10-21T16:53:09.662Z,76.55
2022-10-21T16:55:36.515Z,76.88
2022-10-21T16:58:03.302Z,77.05
2022-10-21T17:00:30.185Z,77.05
2022-10-21T17:02:59.007Z,77.29
2022-10-21T17:05:26.234Z,77.41
2022-10-21T17:07:53.968Z,77.74
2022-10-21T17:10:20.816Z,77.80
2022-10-21T17:12:47.568Z,77.89
2022-10-21T17:15:15.377Z,77.80
2022-10-21T17:17:42.340Z,77.77
2022-10-21T17:20:09.899Z,77.82
2022-10-21T17:22:36.753Z,77.57
2022-10-21T17:25:03.615Z,77.46
2022-10-21T17:27:32.786Z,77.50
2022-10-21T17:29:59.700Z,77.29
2022-10-21T17:32:26.501Z,77.50
2022-10-21T17:34:53.342Z,77.60
2022-10-21T17:37:20.577Z,77.47
2022-10-21T17:39:47.492Z,77.53
2022-10-21T17:42:14.736Z,77.68
2022-10-21T17:44:41.680Z,77.62
2022-10-21T17:47:08.604Z,77.64
2022-10-21T17:49:36.577Z,77.44
2022-10-21T17:52:03.377Z,77.45
2022-10-21T17:54:32.660Z,77.28
2022-10-21T17:57:02.115Z,77.32
2022-10-21T17:59:29.249Z,77.38
2022-10-21T18:01:56.074Z,77.10
2022-10-21T18:04:22.895Z,77.10
2022-10-21T18:06:49.866Z,77.14
2022-10-21T18:09:16.819Z,77.08
2022-10-21T18:11:43.816Z,77.13
2022-10-21T18:14:10.865Z,77.36
2022-10-21T18:16:37.655Z,77.38
2022-10-21T18:19:04.536Z,77.26
2022-10-21T18:21:31.679Z,77.33
2022-10-21T18:23:59.590Z,77.23
2022-10-21T18:26:33.443Z,77.20
2022-10-21T18:29:01.794Z,77.23
2022-10-21T18:31:30.230Z,77.16
2022-10-21T18:33:57.398Z,77.17
2022-10-21T18:36:24.428Z,77.37
2022-10-21T18:38:51.383Z,77.46
2022-10-21T18:41:20.829Z,77.53
2022-10-21T18:43:53.265Z,77.42
2022-10-21T18:46:20.190Z,77.31
2022-10-21T18:48:47.504Z,77.32
2022-10-21T18:51:16.152Z,77.40
2022-10-21T18:53:46.110Z,77.20
2022-10-21T18:56:15.902Z,77.21
2022-10-21T18:58:42.916Z,76.87
2022-10-21T19:01:10.591Z,76.67
2022-10-21T19:03:37.623Z,76.59
2022-10-21T19:06:17.494Z,76.19
2022-10-21T19:08:44.553Z,76.07
2022-10-21T19:11:11.468Z,75.53
2022-10-21T19:13:38.386Z,75.48
2022-10-21T19:16:05.679Z,75.02
2022-10-21T19:18:32.546Z,74.87
2022-10-21T19:20:59.312Z,74.53
2022-10-21T19:23:27.952Z,74.27
2022-10-21T19:25:54.895Z,73.84
2022-10-21T19:28:21.702Z,73.94
2022-10-21T19:30:48.748Z,73.88
2022-10-21T19:33:15.840Z,73.95
2022-10-21T19:35:42.713Z,74.14
2022-10-21T19:38:15.465Z,74.45
2022-10-21T19:43:19.415Z,74.55
2022-10-21T19:45:46.260Z,74.66
2022-10-21T19:48:16.071Z,74.54
2022-10-21T19:50:47.045Z,74.57
2022-10-21T19:53:13.989Z,74.74
2022-10-21T19:55:40.811Z,74.94
2022-10-21T19:58:07.656Z,75.13
2022-10-21T20:00:34.735Z,75.01
2022-10-21T20:03:01.559Z,75.09
2022-10-21T20:05:31.592Z,75.37
2022-10-21T20:07:58.487Z,75.26
2022-10-21T20:10:25.304Z,75.18
2022-10-21T20:12:52.188Z,75.03
2022-10-21T20:15:18.971Z,75.35
2022-10-21T20:17:46.096Z,75.12
2022-10-21T20:20:13.089Z,74.96
2022-10-21T20:22:42.476Z,75.03
2022-10-21T20:25:09.660Z,74.91
2022-10-21T20:27:36.967Z,74.73
2022-10-21T20:30:04.635Z,74.45
2022-10-21T20:32:31.913Z,74.53
2022-10-21T20:34:58.984Z,74.34
2022-10-21T20:37:25.820Z,74.34
2022-10-21T20:39:52.640Z,74.31
2022-10-21T20:42:19.584Z,74.28
2022-10-21T20:44:46.551Z,73.94
2022-10-21T20:47:13.404Z,73.97
2022-10-21T20:49:40.117Z,73.68
2022-10-21T20:52:06.862Z,73.69
2022-10-21T20:54:33.656Z,73.68
2022-10-21T20:57:00.532Z,73.71
2022-10-21T20:59:27.382Z,73.65
2022-10-21T21:01:54.218Z,73.45
2022-10-21T21:04:23.743Z,73.31
2022-10-21T21:06:51.178Z,72.98
2022-10-21T21:12:05.916Z,72.95
2022-10-21T21:14:32.602Z,72.80
2022-10-21T21:16:59.296Z,72.87
2022-10-21T21:19:26.118Z,72.92
2022-10-21T21:21:53.253Z,72.88
2022-10-21T21:24:20.023Z,72.70
2022-10-21T21:26:46.705Z,72.69
2022-10-21T21:29:13.584Z,72.57
2022-10-21T21:33:25.790Z,72.51
2022-10-21T21:35:52.592Z,72.90
2022-10-21T21:38:19.331Z,72.45
2022-10-21T21:40:46.181Z,72.43
2022-10-21T21:43:13.220Z,72.42
2022-10-21T21:45:40.777Z,72.54
2022-10-21T21:48:07.569Z,72.47
2022-10-21T21:50:34.312Z,72.39
2022-10-21T21:53:01.037Z,72.40
2022-10-21T21:55:27.752Z,72.49
2022-10-21T21:57:54.487Z,72.21
2022-10-21T22:00:21.319Z,72.39
2022-10-21T22:02:48.188Z,72.52
2022-10-21T22:05:14.918Z,72.41
2022-10-21T22:07:42.033Z,72.36
2022-10-21T22:10:09.775Z,72.35
2022-10-21T22:12:36.579Z,72.47
2022-10-21T22:15:03.433Z,72.35
2022-10-21T22:17:30.180Z,72.20
2022-10-21T22:19:57.102Z,72.48
2022-10-21T22:22:23.735Z,72.28
2022-10-21T22:24:50.490Z,72.07
2022-10-21T22:27:17.243Z,71.98
2022-10-21T22:29:43.964Z,72.02
2022-10-21T22:32:12.642Z,72.15
2022-10-21T22:34:39.794Z,72.06
2022-10-21T22:37:06.531Z,71.65
2022-10-21T22:39:33.231Z,71.74
2022-10-21T22:42:00.075Z,71.97
2022-10-21T22:44:26.995Z,72.00
2022-10-21T22:46:53.726Z,71.94
2022-10-21T22:49:20.539Z,72.19
2022-10-21T22:51:47.270Z,71.86
2022-10-21T22:54:29.629Z,71.75
2022-10-21T22:57:01.011Z,71.80
2022-10-21T22:59:27.745Z,71.86
2022-10-21T23:01:54.468Z,72.12
2022-10-21T23:04:21.732Z,71.94
2022-10-21T23:06:48.431Z,71.86
2022-10-21T23:09:15.255Z,71.89
2022-10-21T23:11:41.906Z,71.66
2022-10-21T23:14:09.582Z,71.79
2022-10-21T23:16:36.831Z,71.49
2022-10-21T23:19:04.077Z,71.61
2022-10-21T23:21:31.037Z,71.57
2022-10-21T23:23:57.650Z,71.73
2022-10-21T23:26:24.392Z,71.69
2022-10-21T23:28:51.111Z,71.50
2022-10-21T23:31:17.791Z,71.62
2022-10-21T23:33:44.565Z,71.78
2022-10-21T23:36:11.287Z,71.65
2022-10-21T23:38:38.034Z,71.56
2022-10-21T23:41:04.798Z,71.76
2022-10-21T23:43:31.501Z,71.52
2022-10-21T23:45:58.250Z,71.65
2022-10-21T23:48:24.986Z,71.78
2022-10-21T23:50:51.719Z,71.75
2022-10-21T23:53:18.445Z,71.80
2022-10-21T23:55:45.214Z,71.91
2022-10-21T23:58:11.925Z,71.89
